Time;durP1;ratioP1;P1;durP2;ratioP2;P2;SDS_P1;SDS_P2;PMS_P1;PMS_P2;Temp;Humidity;BMP_temperature;BMP_pressure;BME280_temperature;BME280_humidity;BME280_pressure;Samples;Min_cycle;Max_cycle;Signal;HPM_P1;HPM_P2
2021/04/12 00:02:01;;;;;;;3.67;0.10;;;0.90;99.90;;;;;;5074873;28;20032;-74
2021/04/12 00:04:33;;;;;;;2.90;0.45;;;0.90;99.90;;;;;;5057161;28;20035;-74
2021/04/12 00:07:21;;;;;;;3.20;0.10;;;0.90;99.90;;;;;;5074657;28;20043;-74
2021/04/12 00:09:55;;;;;;;2.55;0.05;;;0.90;99.90;;;;;;5074993;28;20038;-74
2021/04/12 00:12:30;;;;;;;6.07;0.40;;;0.90;99.90;;;;;;5074670;28;20485;-74
2021/04/12 00:15:05;;;;;;;3.30;0.10;;;0.80;99.90;;;;;;5057087;28;20032;-74
2021/04/12 00:17:42;;;;;;;1.60;0.10;;;0.90;99.90;;;;;;5077051;28;20036;-74
2021/04/12 00:20:20;;;;;;;2.33;0.10;;;0.90;99.90;;;;;;5074847;28;20070;-75
2021/04/12 00:22:53;;;;;;;4.88;0.45;;;0.90;99.90;;;;;;5068868;28;20028;-74
2021/04/12 00:25:28;;;;;;;1.42;0.32;;;0.90;99.90;;;;;;5074446;28;20029;-73
2021/04/12 00:28:03;;;;;;;3.08;0.00;;;0.90;99.90;;;;;;5073808;28;20024;-74
2021/04/12 00:30:45;;;;;;;4.35;0.10;;;0.90;99.90;;;;;;5074213;28;20024;-74
2021/04/12 00:33:28;;;;;;;2.20;0.30;;;0.90;99.90;;;;;;5056200;28;20056;-74
2021/04/12 00:36:02;;;;;;;2.92;0.00;;;0.90;99.90;;;;;;5056523;28;20016;-74
2021/04/12 00:38:41;;;;;;;0.20;0.10;;;0.80;99.90;;;;;;5055916;28;20031;-74
2021/04/12 00:41:11;;;;;;;;;;;0.80;99.90;;;;;;5074699;28;20020;-75
2021/04/12 00:44:10;;;;;;;4.95;0.00;;;0.80;99.90;;;;;;5071150;28;19908;-74
2021/04/12 00:47:13;;;;;;;1.90;0.00;;;0.80;99.90;;;;;;5073993;28;20138;-75
2021/04/12 00:49:42;;;;;;;2.05;0.00;;;0.70;99.90;;;;;;5074118;28;20116;-74
2021/04/12 00:52:32;;;;;;;1.15;0.05;;;0.80;99.90;;;;;;5073981;28;20032;-74
2021/04/12 00:55:07;;;;;;;0.15;0.00;;;0.70;99.90;;;;;;5056223;28;20036;-74
2021/04/12 00:58:01;;;;;;;3.25;0.10;;;0.70;99.90;;;;;;5073696;28;20107;-73
2021/04/12 01:00:38;;;;;;;1.08;0.00;;;0.70;99.90;;;;;;5074290;28;20052;-74
2021/04/12 01:03:22;;;;;;;0.52;0.00;;;0.70;99.90;;;;;;5046017;28;20386;-74
2021/04/12 01:06:25;;;;;;;3.20;0.10;;;0.60;99.90;;;;;;5060523;22;20041;-74
2021/04/12 01:09:17;;;;;;;3.53;0.30;;;0.60;99.90;;;;;;5054458;28;20031;-74
2021/04/12 01:12:25;;;;;;;4.45;0.10;;;0.60;99.90;;;;;;5053913;28;20075;-74
2021/04/12 01:15:10;;;;;;;0.35;0.00;;;0.60;99.90;;;;;;5033189;28;20406;-74
2021/04/12 01:18:03;;;;;;;1.67;0.10;;;0.60;99.90;;;;;;5034012;28;20017;-75
2021/04/12 01:20:55;;;;;;;0.90;0.20;;;0.60;99.90;;;;;;5049429;28;20091;-76
2021/04/12 01:23:45;;;;;;;2.42;0.03;;;0.70;99.90;;;;;;5042501;28;20466;-75
2021/04/12 01:26:19;;;;;;;0.20;0.00;;;0.60;99.90;;;;;;5034644;28;20071;-74
2021/04/12 01:29:24;;;;;;;3.03;0.30;;;0.60;99.90;;;;;;5053640;28;20040;-74
2021/04/12 01:32:46;;;;;;;3.15;0.13;;;0.60;99.90;;;;;;5053473;28;20094;-75
2021/04/12 01:35:36;;;;;;;2.53;0.10;;;0.60;99.90;;;;;;5014933;28;20026;-74
2021/04/12 01:38:27;;;;;;;1.40;0.22;;;0.60;99.90;;;;;;5033568;28;20105;-75
2021/04/12 01:41:14;;;;;;;0.82;0.05;;;0.60;99.90;;;;;;5049155;28;20475;-74
2021/04/12 01:44:10;;;;;;;0.30;0.00;;;0.70;99.90;;;;;;5033868;28;20479;-74
2021/04/12 01:46:45;;;;;;;0.20;0.00;;;0.70;99.90;;;;;;5038152;28;20051;-74
2021/04/12 01:49:36;;;;;;;2.80;0.00;;;0.80;99.90;;;;;;5053508;28;20142;-74
2021/04/12 01:52:29;;;;;;;4.65;0.60;;;0.80;99.90;;;;;;5053406;28;20426;-75
2021/04/12 01:55:17;;;;;;;3.78;0.10;;;0.80;99.90;;;;;;5034011;28;20029;-74
2021/04/12 01:58:14;;;;;;;2.72;0.10;;;0.80;99.90;;;;;;5015738;28;20064;-75
2021/04/12 02:00:58;;;;;;;4.15;0.00;;;0.70;99.90;;;;;;5037658;28;20017;-73
2021/04/12 02:04:05;;;;;;;2.03;0.17;;;0.70;99.90;;;;;;5037886;28;20044;-74
2021/04/12 02:06:39;;;;;;;7.65;0.10;;;0.80;99.90;;;;;;5040222;28;20440;-73
2021/04/12 02:09:42;;;;;;;6.70;0.30;;;0.80;99.90;;;;;;5057532;28;20602;-74
2021/04/12 02:12:35;;;;;;;14.38;2.20;;;0.80;99.90;;;;;;5056731;28;20055;-74
2021/04/12 02:15:19;;;;;;;6.43;1.60;;;0.90;99.90;;;;;;5057044;28;20107;-74
2021/04/12 02:18:23;;;;;;;12.57;1.98;;;0.90;99.90;;;;;;5057397;28;20114;-73
2021/04/12 02:21:03;;;;;;;16.58;1.92;;;0.90;99.90;;;;;;5055889;28;20497;-73
2021/04/12 02:23:48;;;;;;;14.63;1.92;;;1.10;99.90;;;;;;5045437;28;20429;-73
2021/04/12 02:26:36;;;;;;;6.03;1.02;;;1.10;99.90;;;;;;5037473;28;20119;-73
2021/04/12 02:29:23;;;;;;;7.13;0.28;;;1.20;99.90;;;;;;5055746;28;20036;-73
2021/04/12 02:32:03;;;;;;;2.72;0.20;;;1.20;99.90;;;;;;5055490;28;20075;-74
2021/04/12 02:34:56;;;;;;;3.45;0.10;;;1.30;99.90;;;;;;5056017;28;20060;-75
2021/04/12 02:37:47;;;;;;;3.60;0.50;;;1.40;99.90;;;;;;5042949;28;20052;-74
2021/04/12 02:40:46;;;;;;;0.77;0.05;;;1.30;99.90;;;;;;5036890;28;20026;-75
2021/04/12 02:43:23;;;;;;;4.55;0.25;;;1.30;99.90;;;;;;5043928;28;20505;-75
2021/04/12 02:46:22;;;;;;;9.68;0.55;;;1.30;99.90;;;;;;5056740;28;20025;-73
2021/04/12 02:48:58;;;;;;;2.65;0.00;;;1.30;99.90;;;;;;5071786;28;20017;-73
2021/04/12 02:51:52;;;;;;;3.53;0.00;;;1.30;99.90;;;;;;5057094;28;20021;-73
2021/04/12 02:54:55;;;;;;;2.20;0.10;;;1.30;99.90;;;;;;5056283;28;20478;-73
2021/04/12 02:57:58;;;;;;;4.03;0.38;;;1.20;99.90;;;;;;5055260;28;20032;-74
2021/04/12 03:00:41;;;;;;;1.15;0.00;;;1.10;99.90;;;;;;5056853;28;20056;-74
2021/04/12 03:03:20;;;;;;;1.00;0.35;;;1.10;99.90;;;;;;5056475;28;20029;-74
2021/04/12 03:06:01;;;;;;;4.75;0.20;;;1.10;99.90;;;;;;5054935;28;20536;-73
2021/04/12 03:09:03;;;;;;;2.53;0.00;;;1.10;99.90;;;;;;5054712;28;20422;-74
2021/04/12 03:11:56;;;;;;;1.45;0.00;;;1.10;99.90;;;;;;5056465;28;20071;-74
2021/04/12 03:14:40;;;;;;;0.52;0.10;;;1.10;99.90;;;;;;5056101;28;20405;-74
2021/04/12 03:17:39;;;;;;;3.95;0.00;;;1.20;99.90;;;;;;5054402;28;20082;-74
2021/04/12 03:20:44;;;;;;;0.90;0.03;;;1.20;99.90;;;;;;5036007;28;20087;-74
2021/04/12 03:23:39;;;;;;;2.97;0.00;;;1.20;99.90;;;;;;5025073;28;20100;-74
2021/04/12 03:26:19;;;;;;;0.60;0.00;;;1.30;99.90;;;;;;5036472;28;20041;-74
2021/04/12 03:29:01;;;;;;;0.57;0.00;;;1.20;99.90;;;;;;5050718;28;20101;-74
2021/04/12 03:32:04;;;;;;;4.45;0.00;;;1.20;99.90;;;;;;5054746;28;20119;-74
2021/04/12 03:35:02;;;;;;;1.45;0.00;;;1.20;99.90;;;;;;5068610;28;20112;-74
2021/04/12 03:38:00;;;;;;;0.00;0.00;;;1.20;99.90;;;;;;5050625;28;20017;-74
2021/04/12 03:40:40;;;;;;;0.05;0.00;;;1.20;99.90;;;;;;5034419;28;20029;-74
2021/04/12 03:43:21;;;;;;;0.25;0.00;;;1.10;99.90;;;;;;5036333;28;20032;-74
2021/04/12 03:45:55;;;;;;;0.45;0.00;;;1.10;99.90;;;;;;5035643;28;20121;-74
2021/04/12 03:48:39;;;;;;;3.20;0.00;;;1.10;99.90;;;;;;5036112;28;20025;-74
2021/04/12 03:51:29;;;;;;;1.00;0.00;;;1.00;99.90;;;;;;5035715;28;20591;-74
2021/04/12 03:54:18;;;;;;;1.08;0.00;;;0.90;99.90;;;;;;5034289;28;20057;-74
2021/04/12 03:57:15;;;;;;;0.15;0.00;;;0.90;99.90;;;;;;5034230;28;20063;-74
2021/04/12 04:00:14;;;;;;;1.60;0.10;;;0.90;99.90;;;;;;5048087;28;20045;-74
2021/04/12 04:02:43;;;;;;;0.00;0.00;;;0.80;99.90;;;;;;5035510;28;20113;-73
2021/04/12 04:05:24;;;;;;;0.50;0.00;;;0.80;99.90;;;;;;5050748;28;20107;-73
2021/04/12 04:08:18;;;;;;;0.17;0.00;;;0.70;99.90;;;;;;5036399;28;20064;-74
2021/04/12 04:11:03;;;;;;;0.95;0.00;;;0.70;99.90;;;;;;5035682;28;20068;-74
2021/04/12 04:13:49;;;;;;;3.88;0.00;;;0.60;99.90;;;;;;5035515;28;20451;-74
2021/04/12 04:16:32;;;;;;;2.03;0.00;;;0.60;99.90;;;;;;5035152;28;20459;-74
2021/04/12 04:19:03;;;;;;;2.45;0.10;;;0.60;99.90;;;;;;5036539;28;20022;-74
2021/04/12 04:21:51;;;;;;;1.55;0.00;;;0.50;99.90;;;;;;5054823;28;20037;-74
2021/04/12 04:24:54;;;;;;;0.32;0.00;;;0.50;99.90;;;;;;5054774;28;20032;-74
2021/04/12 04:27:53;;;;;;;1.48;0.10;;;0.50;99.90;;;;;;5055016;28;20036;-74
2021/04/12 04:30:39;;;;;;;0.10;0.10;;;0.40;99.90;;;;;;5041616;28;20478;-74
2021/04/12 04:33:20;;;;;;;1.88;0.00;;;0.40;99.90;;;;;;5035261;28;20105;-74
2021/04/12 04:36:07;;;;;;;1.85;0.10;;;0.40;99.90;;;;;;5033647;28;20036;-74
2021/04/12 04:39:05;;;;;;;2.13;0.05;;;0.40;99.90;;;;;;5034811;28;20496;-74
2021/04/12 04:41:52;;;;;;;2.20;0.00;;;0.40;99.90;;;;;;5055911;28;20027;-75
2021/04/12 04:44:17;;;;;;;0.95;0.00;;;0.40;99.90;;;;;;5053255;28;20056;-74
2021/04/12 04:47:30;;;;;;;0.15;0.03;;;0.40;99.90;;;;;;5054294;28;20087;-74
2021/04/12 04:50:23;;;;;;;1.20;0.00;;;0.30;99.90;;;;;;5035333;28;20564;-74
2021/04/12 04:53:00;;;;;;;3.50;0.28;;;0.30;99.90;;;;;;5044696;28;20041;-74
2021/04/12 04:55:57;;;;;;;1.48;0.00;;;0.30;99.90;;;;;;5054230;28;20037;-74
2021/04/12 04:59:04;;;;;;;2.28;0.00;;;0.30;99.90;;;;;;5055508;28;20032;-76
2021/04/12 05:01:42;;;;;;;1.08;0.10;;;0.30;99.90;;;;;;5060723;22;20570;-75
2021/04/12 05:04:33;;;;;;;3.28;0.00;;;0.30;99.90;;;;;;5056389;28;20044;-74
2021/04/12 05:07:11;;;;;;;1.88;0.00;;;0.30;99.90;;;;;;5074330;28;20024;-75
2021/04/12 05:10:10;;;;;;;1.65;0.00;;;0.40;99.90;;;;;;5073918;28;20028;-74
2021/04/12 05:12:41;;;;;;;;;;;0.50;99.90;;;;;;5074581;28;20024;-74
2021/04/12 05:15:40;;;;;;;1.10;0.00;;;0.70;99.90;;;;;;5072856;28;19915;-75
2021/04/12 05:18:17;;;;;;;0.30;0.00;;;0.80;99.90;;;;;;5074114;28;20124;-75
2021/04/12 05:21:08;;;;;;;1.55;0.00;;;0.90;99.90;;;;;;5060453;28;20039;-75
2021/04/12 05:23:59;;;;;;;2.55;0.00;;;0.90;99.90;;;;;;5073823;28;20543;-75
2021/04/12 05:26:30;;;;;;;4.68;0.10;;;1.00;99.90;;;;;;5073874;28;20108;-75
2021/04/12 05:29:04;;;;;;;0.47;0.00;;;1.00;99.90;;;;;;5073617;28;20035;-75
2021/04/12 05:31:39;;;;;;;2.92;0.00;;;1.10;99.90;;;;;;5053312;28;20119;-75
2021/04/12 05:34:05;;;;;;;4.63;0.13;;;1.10;99.90;;;;;;5035587;28;20025;-75
2021/04/12 05:36:56;;;;;;;0.15;0.00;;;1.10;99.90;;;;;;5053393;28;20032;-75
2021/04/12 05:39:45;;;;;;;0.45;0.20;;;1.20;99.90;;;;;;5056550;28;20039;-75
2021/04/12 05:42:47;;;;;;;2.03;0.00;;;1.30;99.90;;;;;;5073583;28;20109;-76
2021/04/12 05:45:25;;;;;;;0.20;0.00;;;1.40;99.90;;;;;;5071965;28;20032;-76
2021/04/12 05:48:15;;;;;;;1.45;0.10;;;1.50;99.90;;;;;;5073819;28;20028;-77
2021/04/12 05:51:01;;;;;;;0.50;0.00;;;1.60;99.90;;;;;;5071757;28;20060;-75
2021/04/12 05:53:36;;;;;;;3.13;0.00;;;1.60;99.90;;;;;;5072377;28;20036;-76
2021/04/12 05:56:30;;;;;;;2.40;0.00;;;1.70;99.90;;;;;;5072923;28;20025;-75
2021/04/12 05:59:35;;;;;;;3.47;0.00;;;1.70;99.90;;;;;;5072919;28;20021;-75
2021/04/12 06:02:17;;;;;;;1.08;0.00;;;1.70;99.90;;;;;;5059070;28;20216;-76
2021/04/12 06:05:02;;;;;;;0.00;0.00;;;1.70;99.90;;;;;;5074477;28;20013;-77
2021/04/12 06:08:05;;;;;;;2.50;0.00;;;1.70;99.90;;;;;;5081598;22;20455;-74
2021/04/12 06:11:01;;;;;;;0.93;0.30;;;1.80;99.90;;;;;;4992786;28;20399;-76
2021/04/12 06:13:58;;;;;;;2.47;0.20;;;1.90;99.90;;;;;;5055437;28;20083;-75
2021/04/12 06:16:32;;;;;;;1.75;0.00;;;2.10;99.90;;;;;;5074307;28;20493;-80
2021/04/12 06:19:34;;;;;;;2.92;0.20;;;2.40;99.90;;;;;;5069139;22;20040;-79
2021/04/12 06:22:38;;;;;;;1.67;0.00;;;2.60;99.90;;;;;;5085725;22;20047;-76
2021/04/12 06:25:34;;;;;;;1.75;0.45;;;2.90;99.90;;;;;;5052486;28;20033;-79
2021/04/12 06:28:18;;;;;;;1.98;0.00;;;3.20;99.90;;;;;;5130539;22;20036;-75
2021/04/12 06:30:52;;;;;;;1.45;0.52;;;3.50;99.90;;;;;;5089446;28;20107;-75
2021/04/12 06:33:38;;;;;;;2.00;0.20;;;3.80;99.90;;;;;;5073775;28;20032;-77
2021/04/12 06:36:28;;;;;;;3.22;0.00;;;4.10;99.90;;;;;;5088972;28;20028;-77
2021/04/12 06:39:31;;;;;;;0.93;0.00;;;4.30;99.90;;;;;;5073492;28;20473;-77
2021/04/12 06:42:34;;;;;;;0.93;0.00;;;4.50;99.90;;;;;;5071963;28;20495;-77
2021/04/12 06:45:15;;;;;;;0.47;0.00;;;4.70;99.90;;;;;;5072544;28;20025;-77
2021/04/12 06:48:01;;;;;;;1.27;0.60;;;4.80;99.90;;;;;;5037105;28;20036;-77
2021/04/12 06:51:02;;;;;;;1.45;0.00;;;4.90;99.90;;;;;;5036637;28;20032;-77
2021/04/12 06:53:36;;;;;;;0.20;0.00;;;5.00;99.90;;;;;;5036673;28;20079;-77
2021/04/12 06:56:13;;;;;;;1.48;0.00;;;5.00;99.90;;;;;;5036510;28;20139;-77
2021/04/12 06:59:02;;;;;;;4.00;0.00;;;4.80;99.90;;;;;;5035225;28;20073;-77
2021/04/12 07:02:04;;;;;;;1.58;0.00;;;4.40;99.90;;;;;;5052997;28;20048;-77
2021/04/12 07:04:51;;;;;;;1.73;0.10;;;4.10;99.90;;;;;;5055938;28;20482;-77
2021/04/12 07:07:58;;;;;;;0.52;0.00;;;3.70;99.90;;;;;;5072121;28;20025;-77
2021/04/12 07:10:45;;;;;;;3.25;0.00;;;3.50;99.90;;;;;;5026184;28;20498;-77
2021/04/12 07:13:37;;;;;;;1.45;0.00;;;3.30;99.90;;;;;;5034891;28;20055;-77
2021/04/12 07:16:27;;;;;;;0.65;0.00;;;3.30;99.90;;;;;;5038061;28;20534;-77
2021/04/12 07:19:10;;;;;;;1.80;0.00;;;3.20;99.90;;;;;;5050287;28;20028;-77
2021/04/12 07:21:54;;;;;;;1.58;0.00;;;3.20;99.90;;;;;;5048400;28;20100;-77
2021/04/12 07:24:50;;;;;;;0.20;0.20;;;3.20;99.90;;;;;;5056559;28;20488;-76
2021/04/12 07:27:22;;;;;;;3.08;0.00;;;3.10;99.90;;;;;;5055427;28;20017;-79
2021/04/12 07:30:00;;;;;;;1.05;0.00;;;3.20;99.90;;;;;;5052311;28;20029;-78
2021/04/12 07:33:03;;;;;;;3.25;0.00;;;3.30;99.90;;;;;;5036419;28;20026;-76
2021/04/12 07:35:53;;;;;;;1.73;0.00;;;3.30;99.90;;;;;;5034899;28;20033;-75
2021/04/12 07:38:18;;;;;;;0.35;0.00;;;3.30;99.90;;;;;;5035204;28;20025;-78
2021/04/12 07:41:20;;;;;;;2.58;0.22;;;3.30;99.90;;;;;;5034540;28;20037;-77
2021/04/12 07:44:23;;;;;;;0.85;0.00;;;3.30;99.90;;;;;;5034751;28;20017;-79
2021/04/12 07:47:34;;;;;;;2.42;0.10;;;3.60;99.90;;;;;;5076972;22;20574;-77
2021/04/12 07:50:30;;;;;;;9.25;0.30;;;3.80;99.90;;;;;;5065986;28;20067;-77
2021/04/12 07:53:32;;;;;;;1.17;0.00;;;4.00;99.90;;;;;;5096323;28;20016;-80
2021/04/12 07:56:20;;;;;;;0.52;0.00;;;4.50;99.90;;;;;;5077617;28;20048;-77
2021/04/12 07:59:03;;;;;;;1.00;0.00;;;4.70;99.90;;;;;;5094161;23;20121;-80
2021/04/12 08:01:40;;;;;;;1.75;0.00;;;4.90;99.90;;;;;;5075708;28;20020;-76
2021/04/12 08:04:18;;;;;;;0.22;0.10;;;5.00;99.90;;;;;;5083042;22;20060;-79
2021/04/12 08:07:16;;;;;;;0.55;0.00;;;5.00;99.90;;;;;;5062829;28;20033;-78
2021/04/12 08:09:54;;;;;;;2.08;0.10;;;5.20;99.90;;;;;;5032905;28;20045;-76
2021/04/12 08:13:10;;;;;;;5.60;0.57;;;5.40;99.90;;;;;;5055079;28;20037;-77
2021/04/12 08:16:13;;;;;;;0.43;0.00;;;5.60;99.90;;;;;;5072458;28;20436;-79
2021/04/12 08:19:12;;;;;;;4.80;0.00;;;5.90;99.90;;;;;;5106720;22;20055;-76
2021/04/12 08:21:56;;;;;;;;;;;5.70;99.90;;;;;;5057752;28;20028;-78
2021/04/12 08:24:59;;;;;;;2.42;0.00;;;5.70;99.90;;;;;;5075281;28;19930;-77
2021/04/12 08:28:19;;;;;;;2.75;0.00;;;5.70;99.90;;;;;;5130433;22;20082;-77
2021/04/12 08:31:24;;;;;;;0.57;0.00;;;5.40;99.90;;;;;;4959110;28;20053;-78
2021/04/12 08:34:29;;;;;;;0.85;0.10;;;5.30;99.90;;;;;;5057263;28;20032;-77
2021/04/12 08:37:13;;;;;;;2.30;0.00;;;5.20;99.90;;;;;;5083115;28;20213;-79
2021/04/12 08:39:45;;;;;;;2.45;0.20;;;5.10;99.90;;;;;;5100924;23;20044;-78
2021/04/12 08:42:45;;;;;;;0.82;0.65;;;6.10;99.90;;;;;;5068701;28;20021;-77
2021/04/12 08:45:42;;;;;;;3.15;0.00;;;5.10;99.90;;;;;;5072022;28;20535;-80
2021/04/12 08:48:07;;;;;;;0.40;0.30;;;5.20;99.90;;;;;;5129036;22;20048;-77
2021/04/12 08:51:00;;;;;;;1.38;0.00;;;5.30;99.90;;;;;;5052673;28;20013;-75
2021/04/12 08:54:01;;;;;;;2.15;0.10;;;5.30;99.90;;;;;;5056282;28;20032;-77
2021/04/12 08:57:08;;;;;;;0.77;0.00;;;5.20;99.90;;;;;;5056463;28;20119;-79
2021/04/12 09:00:02;;;;;;;0.65;0.00;;;4.90;99.90;;;;;;5038949;28;20394;-80
2021/04/12 09:02:52;;;;;;;0.73;0.00;;;4.30;99.90;;;;;;5048630;28;20063;-79
2021/04/12 09:05:52;;;;;;;0.00;0.00;;;3.90;99.90;;;;;;5055214;28;20082;-80
2021/04/12 09:09:00;;;;;;;0.05;0.00;;;3.60;99.90;;;;;;5056483;28;20533;-80
2021/04/12 09:11:57;;;;;;;0.10;0.00;;;3.30;99.90;;;;;;5047645;28;20039;-80
2021/04/12 09:14:38;;;;;;;0.90;0.00;;;3.20;99.90;;;;;;5055386;28;20112;-80
2021/04/12 09:17:20;;;;;;;0.00;0.00;;;3.20;99.90;;;;;;5074051;28;20032;-80
2021/04/12 09:20:19;;;;;;;0.93;0.00;;;3.20;99.90;;;;;;5073479;28;20424;-80
2021/04/12 09:22:59;;;;;;;;;;;3.20;99.90;;;;;;5074051;28;20101;-80
2021/04/12 09:25:46;;;;;;;0.32;0.00;;;3.30;99.90;;;;;;5055833;28;20276;-80
2021/04/12 09:28:31;;;;;;;0.40;0.20;;;3.40;99.90;;;;;;5073809;28;20033;-77
2021/04/12 09:31:41;;;;;;;0.10;0.00;;;3.30;99.90;;;;;;5055807;28;20366;-75
2021/04/12 09:34:20;;;;;;;2.78;0.10;;;3.50;99.90;;;;;;5073939;28;20025;-76
2021/04/12 09:37:23;;;;;;;0.98;0.00;;;3.70;99.90;;;;;;5055738;28;20033;-76
2021/04/12 09:40:07;;;;;;;0.10;0.00;;;3.80;99.90;;;;;;5074217;28;20021;-78
2021/04/12 09:43:10;;;;;;;2.15;0.30;;;3.80;99.90;;;;;;5073957;28;20025;-79
2021/04/12 09:46:03;;;;;;;1.40;0.10;;;4.00;99.90;;;;;;5055165;28;20075;-76
2021/04/12 09:49:03;;;;;;;0.00;0.00;;;4.20;99.90;;;;;;5073678;28;20040;-76
2021/04/12 09:52:05;;;;;;;0.77;0.05;;;4.20;99.90;;;;;;5073615;28;20454;-76
2021/04/12 09:54:58;;;;;;;0.10;0.00;;;4.30;99.90;;;;;;5073483;28;20409;-78
2021/04/12 09:58:03;;;;;;;0.10;0.00;;;4.40;99.90;;;;;;5073598;28;20040;-76
2021/04/12 10:00:34;;;;;;;0.30;0.00;;;4.60;99.90;;;;;;5074236;28;20052;-75
2021/04/12 10:03:42;;;;;;;0.10;0.00;;;4.80;99.90;;;;;;5073453;28;20086;-76
2021/04/12 10:06:32;;;;;;;0.10;0.00;;;4.90;99.90;;;;;;5009576;28;20385;-78
2021/04/12 10:09:09;;;;;;;0.35;0.13;;;5.00;99.90;;;;;;5086758;23;20166;-75
2021/04/12 10:12:12;;;;;;;0.47;0.03;;;5.10;99.90;;;;;;5072108;28;20024;-77
2021/04/12 10:14:44;;;;;;;0.30;0.10;;;5.10;99.90;;;;;;5072067;28;20065;-76
2021/04/12 10:17:40;;;;;;;0.10;0.10;;;5.10;99.90;;;;;;5071626;28;20412;-77
2021/04/12 10:20:41;;;;;;;0.68;0.10;;;5.10;99.90;;;;;;5077304;28;20021;-76
2021/04/12 10:23:17;;;;;;;1.35;0.20;;;5.30;99.90;;;;;;5058972;28;20036;-76
2021/04/12 10:25:57;;;;;;;0.80;0.28;;;5.50;99.90;;;;;;5077304;28;20031;-75
2021/04/12 10:28:30;;;;;;;0.30;0.08;;;5.60;99.90;;;;;;5078020;28;20028;-77
2021/04/12 10:31:10;;;;;;;1.15;0.90;;;5.70;99.90;;;;;;5089792;22;20049;-78
2021/04/12 10:33:57;;;;;;;1.38;0.70;;;5.80;99.90;;;;;;5076749;28;20030;-77
2021/04/12 10:36:22;;;;;;;0.75;0.38;;;6.00;99.90;;;;;;5286667;22;20089;-77
2021/04/12 10:38:59;;;;;;;0.40;0.10;;;8.60;99.90;;;;;;5076991;28;20500;-76
2021/04/12 10:41:33;;;;;;;2.15;0.10;;;6.70;99.90;;;;;;5058553;28;20021;-78
2021/04/12 10:44:11;;;;;;;0.28;0.10;;;6.10;99.90;;;;;;5058587;28;20028;-76
2021/04/12 10:46:58;;;;;;;0.20;0.00;;;6.70;99.90;;;;;;5088741;23;20493;-78
2021/04/12 10:50:03;;;;;;;0.30;0.10;;;6.80;99.90;;;;;;5097039;22;20560;-76
2021/04/12 10:52:57;;;;;;;1.38;0.32;;;7.00;99.90;;;;;;5057068;28;20052;-77
2021/04/12 10:55:29;;;;;;;0.63;0.00;;;7.00;99.90;;;;;;5073119;28;20078;-76
2021/04/12 10:58:24;;;;;;;1.45;0.43;;;7.20;99.90;;;;;;5074928;28;20024;-75
2021/04/12 11:01:22;;;;;;;0.20;0.10;;;7.60;99.90;;;;;;5053610;28;20040;-75
2021/04/12 11:04:07;;;;;;;0.90;0.00;;;7.80;97.50;;;;;;5033185;28;20194;-75
2021/04/12 11:07:01;;;;;;;0.73;0.10;;;8.00;98.20;;;;;;5055450;28;20096;-75
2021/04/12 11:09:33;;;;;;;1.50;0.10;;;8.30;95.70;;;;;;5056649;28;20024;-75
2021/04/12 11:12:37;;;;;;;0.82;0.10;;;8.40;96.50;;;;;;5054679;28;20065;-77
2021/04/12 11:15:10;;;;;;;2.28;0.28;;;8.80;91.10;;;;;;5014006;28;20030;-76
2021/04/12 11:18:00;;;;;;;3.20;0.10;;;9.10;90.10;;;;;;5049302;28;20116;-76
2021/04/12 11:20:41;;;;;;;1.65;0.10;;;9.30;88.20;;;;;;5052735;28;20032;-75
2021/04/12 11:23:36;;;;;;;1.20;0.00;;;9.30;79.00;;;;;;5040756;28;20048;-75
2021/04/12 11:26:17;;;;;;;1.50;0.20;;;9.50;77.60;;;;;;5043259;28;20035;-77
2021/04/12 11:31:33;;;;;;;1.10;0.28;;;9.90;83.00;;;;;;5060454;28;20045;-78
2021/04/12 11:34:15;;;;;;;1.13;0.00;;;9.80;75.40;;;;;;5062140;28;20107;-79
2021/04/12 11:37:02;;;;;;;1.88;0.00;;;9.40;76.60;;;;;;5052626;28;20025;-75
2021/04/12 11:39:31;;;;;;;1.55;0.10;;;8.70;75.80;;;;;;5038213;28;20024;-77
2021/04/12 11:42:01;;;;;;;4.65;0.00;;;8.00;79.90;;;;;;5057819;28;20420;-78
2021/04/12 11:44:39;;;;;;;2.08;0.10;;;7.50;83.10;;;;;;5048111;28;20025;-77
2021/04/12 11:47:22;;;;;;;2.45;0.00;;;7.20;87.40;;;;;;5038952;28;20029;-77
2021/04/12 11:50:02;;;;;;;2.28;0.00;;;7.00;86.50;;;;;;5044144;28;20504;-75
2021/04/12 11:52:37;;;;;;;0.10;0.10;;;7.20;92.70;;;;;;5092969;22;20052;-77
2021/04/12 11:55:33;;;;;;;2.15;0.00;;;7.60;92.90;;;;;;5135852;22;20101;-77
2021/04/12 11:58:25;;;;;;;0.00;0.00;;;8.20;92.50;;;;;;5077905;28;20043;-75
2021/04/12 12:01:11;;;;;;;3.10;0.00;;;9.00;91.80;;;;;;5098263;28;20016;-76
2021/04/12 12:03:42;;;;;;;1.27;0.00;;;9.40;80.60;;;;;;5094955;28;20031;-78
2021/04/12 12:06:10;;;;;;;0.00;0.00;;;9.30;66.90;;;;;;5095518;28;20028;-77
2021/04/12 12:08:48;;;;;;;1.77;0.00;;;9.00;65.70;;;;;;5095768;28;20024;-76
2021/04/12 12:11:31;;;;;;;0.10;0.00;;;8.60;68.30;;;;;;5095141;28;20024;-78
2021/04/12 12:14:04;;;;;;;0.80;0.00;;;8.70;67.60;;;;;;5095663;28;20049;-78
2021/04/12 12:16:35;;;;;;;0.47;0.00;;;9.10;68.40;;;;;;5094521;28;20031;-78
2021/04/12 12:19:10;;;;;;;4.03;0.32;;;9.40;67.70;;;;;;5085632;28;20023;-77
2021/04/12 12:21:35;;;;;;;0.13;0.00;;;9.80;62.70;;;;;;5077520;28;20154;-79
2021/04/12 12:24:13;;;;;;;0.20;0.00;;;9.90;61.30;;;;;;5095445;28;20040;-76
2021/04/12 12:26:45;;;;;;;1.48;0.32;;;10.20;64.00;;;;;;5095457;28;20036;-78
2021/04/12 12:29:19;;;;;;;3.08;0.00;;;10.20;58.20;;;;;;5096567;28;20091;-77
2021/04/12 12:32:21;;;;;;;1.73;0.00;;;10.10;57.00;;;;;;5079067;28;20070;-77
2021/04/12 12:35:19;;;;;;;0.00;0.00;;;9.80;55.30;;;;;;5094571;28;20482;-78
2021/04/12 12:38:27;;;;;;;0.10;0.00;;;9.70;56.20;;;;;;5053810;28;20089;-76
2021/04/12 12:41:16;;;;;;;0.60;0.05;;;10.10;57.50;;;;;;5059272;28;20354;-80
2021/04/12 12:43:43;;;;;;;2.05;0.00;;;10.40;51.10;;;;;;5059053;28;20066;-75
2021/04/12 12:46:27;;;;;;;0.10;0.10;;;10.70;53.10;;;;;;5056493;28;20059;-76
2021/04/12 12:49:05;;;;;;;0.43;0.00;;;10.40;57.30;;;;;;5074354;28;20024;-77
2021/04/12 12:51:36;;;;;;;2.20;0.00;;;10.50;60.90;;;;;;5075092;28;20118;-78
2021/04/12 12:54:13;;;;;;;0.05;0.00;;;11.00;55.50;;;;;;5073812;28;20030;-79
2021/04/12 12:56:42;;;;;;;0.75;0.00;;;11.40;52.80;;;;;;5079566;28;20024;-77
2021/04/12 12:59:25;;;;;;;1.58;0.00;;;11.30;52.90;;;;;;5078335;28;20391;-75
2021/04/12 13:01:51;;;;;;;0.75;0.00;;;11.00;53.20;;;;;;5080639;28;20018;-76
2021/04/12 13:04:20;;;;;;;0.95;0.00;;;10.70;53.40;;;;;;5117286;28;20074;-76
2021/04/12 13:07:20;;;;;;;0.85;0.00;;;10.30;53.10;;;;;;5115207;28;20023;-76
2021/04/12 13:10:12;;;;;;;1.58;0.28;;;9.80;54.30;;;;;;5056050;28;20036;-78
2021/04/12 13:12:40;;;;;;;1.15;0.00;;;9.70;53.80;;;;;;5112611;28;20055;-74
2021/04/12 13:15:17;;;;;;;0.10;0.10;;;9.50;54.50;;;;;;5116029;28;20034;-76
2021/04/12 13:17:43;;;;;;;1.55;0.32;;;9.90;57.50;;;;;;5110803;28;20024;-76
2021/04/12 13:22:41;;;;;;;0.43;0.00;;;10.70;53.60;;;;;;5033453;28;20056;-75
2021/04/12 13:25:19;;;;;;;2.53;0.00;;;11.10;54.60;;;;;;5035573;28;20025;-75
2021/04/12 13:28:00;;;;;;;0.25;0.00;;;11.10;53.30;;;;;;5088773;22;20052;-79
2021/04/12 13:30:29;;;;;;;2.08;0.03;;;11.50;53.40;;;;;;5094795;28;20024;-76
2021/04/12 13:33:05;;;;;;;1.92;0.20;;;11.40;54.40;;;;;;5076351;28;20028;-77
2021/04/12 13:35:37;;;;;;;0.55;0.00;;;11.10;54.00;;;;;;5095107;28;20024;-79
2021/04/12 13:38:15;;;;;;;2.13;0.10;;;10.70;56.80;;;;;;5108423;28;20059;-76
2021/04/12 13:43:31;;;;;;;2.22;0.00;;;10.50;60.30;;;;;;5056251;28;20049;-79
2021/04/12 13:46:27;;;;;;;3.13;0.08;;;13.20;64.10;;;;;;5068008;28;20020;-78
2021/04/12 13:49:12;;;;;;;3.15;0.10;;;10.10;63.20;;;;;;5054667;28;20104;-77
2021/04/12 13:51:46;;;;;;;2.13;0.00;;;9.60;62.70;;;;;;5017956;28;20044;-76
2021/04/12 13:54:30;;;;;;;3.72;0.75;;;9.30;62.50;;;;;;5020855;28;20028;-75
2021/04/12 13:57:08;;;;;;;1.45;0.20;;;9.00;65.60;;;;;;5021791;28;20036;-76
2021/04/12 13:59:40;;;;;;;1.75;0.28;;;9.20;71.10;;;;;;5041678;28;20033;-78
2021/04/12 14:02:22;;;;;;;0.55;0.10;;;9.50;68.30;;;;;;5042841;28;20032;-79
2021/04/12 14:04:59;;;;;;;0.25;0.03;;;9.80;60.00;;;;;;5039124;28;20014;-76
2021/04/12 14:07:39;;;;;;;0.63;0.08;;;10.20;53.10;;;;;;5105473;22;20052;-76
2021/04/12 14:10:28;;;;;;;2.65;0.00;;;12.20;55.00;;;;;;5139374;27;20126;-76
2021/04/12 14:13:13;;;;;;;0.50;0.00;;;10.80;54.60;;;;;;5102630;22;20040;-77
2021/04/12 14:15:53;;;;;;;0.40;0.05;;;11.20;57.00;;;;;;5080233;28;20024;-78
2021/04/12 14:18:32;;;;;;;0.43;0.00;;;11.20;52.10;;;;;;5078548;22;20082;-76
2021/04/12 14:21:31;;;;;;;0.20;0.00;;;11.30;50.60;;;;;;5059431;28;20021;-78
2021/04/12 14:23:56;;;;;;;2.05;0.00;;;11.50;54.60;;;;;;5075620;28;20909;-75
2021/04/12 14:26:45;;;;;;;1.23;0.00;;;11.70;52.90;;;;;;5061969;28;20047;-75
2021/04/12 14:29:26;;;;;;;0.13;0.00;;;12.00;54.10;;;;;;5079265;28;20054;-75
2021/04/12 14:31:54;;;;;;;1.10;0.40;;;11.90;50.40;;;;;;5097366;28;20032;-75
2021/04/12 14:34:32;;;;;;;1.35;0.00;;;11.90;50.90;;;;;;5097445;28;20419;-75
2021/04/12 14:37:07;;;;;;;0.60;0.00;;;12.00;52.50;;;;;;5097100;28;20481;-75
2021/04/12 14:39:33;;;;;;;5.07;0.55;;;12.30;50.10;;;;;;5097295;28;20338;-75
2021/04/12 14:42:11;;;;;;;1.83;0.00;;;12.60;49.90;;;;;;5096916;28;20020;-75
2021/04/12 14:44:42;;;;;;;0.63;0.10;;;13.00;50.00;;;;;;5096826;28;20036;-75
2021/04/12 14:47:17;;;;;;;33.15;0.90;;;13.50;47.40;;;;;;5096737;28;20016;-75